ADDS TAF Data INFO
IDs: Format: Raw Decoded Include METARs

Data at: 0755 UTC 24 May 2018

Region: TOP
KATL 240741Z 2408/2512 07006KT 6SM BR OVC005
  TEMPO 2408/2410 5SM BR OVC003
  FM241200 07004KT P6SM BKN009
  FM241500 07006KT P6SM VCSH BKN025
  FM241800 09005KT P6SM SHRA BKN040
  PROB30 2420/2502 4SM TSRA BKN015CB
  FM250200 11005KT P6SM OVC030


KBOS 240533Z 2406/2512 02003KT P6SM SCT070
  FM240930 03006KT P6SM SCT008
  FM241200 04007KT P6SM SCT090
  FM241600 07009KT P6SM FEW150
  FM241800 10010KT P6SM SCT250
  FM242200 14010KT P6SM FEW250
  FM250000 18009KT P6SM FEW250
  FM250200 21010G17KT P6SM FEW250


KBWI 240535Z 2406/2512 26004KT P6SM FEW250
  FM241400 01006KT P6SM FEW250
  FM250000 VRB03KT P6SM SKC


KCLE 240538Z 2406/2512 VRB03KT P6SM BKN250
  FM241700 03006KT P6SM SCT250
  FM250200 VRB03KT P6SM SCT250


KCLT 240745Z 2408/2512 04003KT 6SM BR SCT030 BKN100
  FM241100 03005KT P6SM SCT030 BKN045
  FM241300 05007KT P6SM BKN030
  FM241800 06008KT P6SM VCSH BKN035
  PROB30 2418/2424 4SM -TSRA OVC025CB
  FM250600 10003KT P6SM BKN030
  FM250900 12004KT 6SM BR BKN025


KCVG 240540Z 2406/2512 07005KT P6SM FEW250
  FM241400 08008KT P6SM SCT250
  FM250000 VRB04KT P6SM SKC


KDCA 240535Z 2406/2512 31004KT P6SM FEW250
  FM241300 01006KT P6SM FEW250
  FM242300 14004KT P6SM FEW250
  FM250800 20004KT P6SM SKC


KDEN 240637Z 2407/2512 33010KT P6SM FEW110 SCT150
  FM240900 22009KT P6SM FEW150
  FM241600 VRB05KT P6SM FEW150
  FM242100 06008KT P6SM FEW100 BKN150
  FM250200 15010KT P6SM BKN150
  FM250400 20011KT P6SM SCT150


KDFW 240520Z 2406/2512 16008KT P6SM SCT060 SCT300

KDTW 240524Z 2406/2512 VRB03KT P6SM SCT250
  FM241800 18006KT P6SM SCT250


KEWR 240522Z 2406/2512 28006KT P6SM SKC
  FM241300 35009KT P6SM SKC
  FM242100 VRB05KT P6SM SKC
  FM242200 15007KT P6SM SKC
  FM250000 21004KT P6SM SKC


KFLL 240726Z 2407/2512 11007KT P6SM VCSH SCT025 BKN050 BKN150
  TEMPO 2407/2409 5SM SHRA SCT015 BKN025
  FM241600 14010KT P6SM VCTS SCT025CB BKN050 BKN100
  FM241900 11009KT P6SM VCSH SCT025 BKN050
  FM250200 12007KT P6SM SCT050 BKN100


KIAD 240535Z 2406/2512 00000KT P6SM SCT250
  FM241400 35006KT P6SM FEW250
  FM250000 VRB03KT P6SM SKC


KIAH 240520Z 2406/2512 VRB04KT P6SM FEW250
  FM241200 VRB03KT P6SM SCT020
  FM241700 11006KT P6SM VCSH SCT040
  PROB30 2418/2420 TSRA BKN035CB
  FM250000 12007KT P6SM BKN250
  FM250300 15004KT P6SM SCT250


KJFK 240522Z 2406/2512 32008KT P6SM SKC
  FM241300 35010KT P6SM SKC
  FM241900 VRB05KT P6SM SKC
  FM242100 18009KT P6SM SKC
  FM250100 19005KT P6SM SKC


KLAS 240520Z 2406/2512 20009KT P6SM SKC
  FM241200 VRB05KT P6SM SKC
  FM241600 07007KT P6SM SKC
  FM241900 15009KT P6SM SKC
  FM242300 16011G20KT P6SM SKC
  FM250400 19012KT P6SM SKC


KLAX 240523Z 2406/2512 27007KT P6SM SCT015
  FM240700 26006KT P6SM BKN025
  FM241200 VRB03KT 6SM -DZ BR BKN015 OVC025
  FM241700 25008KT P6SM SCT015 OVC025
  FM242100 26015KT P6SM BKN035
  FM250300 26010KT P6SM OVC025


KLGA 240522Z 2406/2512 32006KT P6SM SKC
  FM241300 35010KT P6SM SKC
  FM241900 06006KT P6SM SKC
  FM242300 17008KT P6SM SKC
  FM250200 19005KT P6SM SKC


KMCO 240520Z 2406/2512 15003KT P6SM FEW090
  FM241400 09005KT P6SM FEW030 SCT250
  FM241800 09010KT P6SM VCTS SCT035CB SCT070 BKN250
  FM242200 10010KT P6SM SCT060 BKN120
  FM250000 10006KT P6SM FEW060 BKN090 BKN250


KMDW 240520Z 2406/2512 11004KT P6SM FEW250
  FM241300 17008KT P6SM FEW070 FEW150
  FM242200 13007KT P6SM FEW250
  FM250700 20006KT P6SM FEW250


KMEM 240520Z 2406/2512 VRB04KT P6SM SCT040 BKN250
  TEMPO 2414/2417 BKN035
  FM241700 06006KT P6SM VCSH SCT040 SCT250
  FM250100 09004KT P6SM VCSH SCT050 BKN200


KMIA 240540Z 2406/2512 10007KT P6SM FEW020 SCT120
  FM241200 11006KT P6SM VCSH SCT025 SCT045 BKN150
  FM241600 14010KT P6SM VCTS SCT025CB BKN050 BKN100
  FM241900 12009KT P6SM VCSH SCT025 BKN050
  FM250200 12007KT P6SM SCT050 BKN100


KMSP 240520Z 2406/2512 14008KT P6SM FEW070 SCT250
  FM241600 17013G21KT P6SM SCT060 SCT150
  PROB30 2423/2505 -TSRA BKN050CB
  FM250500 18009KT P6SM SCT050


KORD 240520Z 2406/2512 11004KT P6SM FEW250
  FM241300 17008KT P6SM FEW070 FEW150
  FM242200 13007KT P6SM FEW250
  FM250700 20006KT P6SM FEW250


KPDX 240520Z 2406/2506 33007KT P6SM SCT030 BKN060
  FM240900 29004KT P6SM SCT015 OVC030
  FM241200 21003KT P6SM BKN015 OVC030
  FM241800 35004KT P6SM SCT015 BKN030
  FM242000 36006KT P6SM SCT030 BKN060


KPHL 240522Z 2406/2512 32005KT P6SM SKC
  FM241200 36008KT P6SM SKC
  FM242000 VRB04KT P6SM SKC
  FM250100 18008KT P6SM SKC
  FM250200 21006KT P6SM SKC


KPHX 240539Z 2406/2512 28010KT P6SM SKC
  FM241000 11004KT P6SM SKC
  FM242000 23007KT P6SM SKC
  FM250100 27011KT P6SM SKC
  FM251000 10005KT P6SM SKC


KPIT 240520Z 2406/2512 VRB03KT P6SM SKC

KSAN 240656Z 2407/2512 VRB04KT P6SM SCT015 OVC020
  FM241100 VRB04KT P6SM OVC015
  FM241800 29010KT P6SM BKN025
  FM250200 VRB04KT P6SM OVC020


KSEA 240521Z 2406/2512 21009KT P6SM SCT100
  FM240900 21007KT P6SM OVC015
  FM241200 20007KT P6SM OVC010
  FM241900 23004KT P6SM BKN020
  FM242100 28005KT P6SM SCT025 SCT040
  FM250400 VRB04KT P6SM BKN035


KSFO 240522Z 2406/2512 25008KT P6SM OVC015
  FM241700 24006KT P6SM SCT015 SCT050 BKN150
  FM242100 27013KT P6SM SCT020 BKN050 BKN100
  FM250300 27008KT P6SM VCSH SCT030 BKN100


KSLC 240544Z 2406/2512 16006KT P6SM FEW100
  FM241900 32008KT P6SM FEW080 SCT150
  FM250300 15008KT P6SM SKC


KSTL 240520Z 2406/2512 VRB04KT P6SM SCT250
  FM241600 13006KT P6SM FEW040 SCT250


KTPA 240523Z 2406/2512 VRB03KT P6SM FEW025 SCT080
  FM241400 14006KT P6SM SCT020 BKN250
  FM241800 24006KT P6SM VCTS SCT025CB BKN050
  FM242200 29008KT P6SM VCTS FEW025CB BKN100
  FM250200 VRB03KT P6SM SCT015 BKN200